Terminal Aerodrome Forecast
Issued by NWS

Home | Current Version | Previous Version | Text Only | Print | Product List | Glossary On
Versions: 1 2 3 4 5 6 7 8 9 10 11 12 13 14 15 16 17 18 19 20 21 22
000
FTUS45 KRIW 220500
TAFPNA
TAF
KPNA 220540Z 2206/2306 28006KT P6SM SCT080 BKN200
     FM221000 VRB04KT P6SM VCSH SCT030 BKN045 WS020/26030KT
     FM221400 VRB05KT 2SM -SN SCT008 OVC016 WS020/25030KT
     FM222200 28015G27KT 2SM -SN BLSN OVC008
     FM230400 31012KT 5SM -SHSN SCT018 BKN030
      AMD LTD TO CLD VIS AND WIND=

USA.gov is the U.S. government's official web portal to all federal, state and local government web resources and services.